METAR stanice u blizini

 

LYBE - Beograd / Surčin, Srbija
Ažurirano: 18/11/2019 14:00
Vedro
Vedro
 Pravac vetra SZ
Vetar: SZ 19 km/h
Temperatura: 17°C
Tačka rose: 6°C
Vlažnost: 49%
Pritisak: 1016 hPa
Pregled: Vedro
Vidljivost: greater than 10 km
2019/11/18 13:00 LYBE 181300Z 32010KT CAVOK 17/06 Q1016 NOSIG
LYBT - Beograd / Batajnica, Srbija
Ažurirano: 18/11/2019 14:00
Vedro
Vedro
 Pravac vetra Z
Vetar: Z 19 km/h
Temperatura: 17°C
Tačka rose: 5°C
Vlažnost: 45%
Pritisak: 1016 hPa
Pregled: Vedro
Vidljivost: greater than 10 km
2019/11/18 13:00 LYBT 181300Z 28010KT CAVOK 17/05 Q1016 NOSIG
LYVR - Vršac, Srbija
Ažurirano: 18/11/2019 14:00
Vedro
Vedro
 Pravac vetra JI
Vetar: JI 30 km/h
Temperatura: 17°C
Tačka rose: 9°C
Vlažnost: 59%
Pritisak: 1016 hPa
Pregled: Vedro
Vidljivost: greater than 10 km
2019/11/18 13:00 LYVR 181300Z 14016KT 100V160 CAVOK 17/09 Q1016 NOSIG
 
LYKV - Lađevci, Srbija
Ažurirano: 18/11/2019 14:00
Partly Cloudy
Partly Cloudy
 Pravac vetra varies
Vetar: varies 4 km/h
Temperatura: 20°C
Tačka rose: 6°C
Vlažnost: 40%
Pritisak: 1016 hPa
Oblaci: Partly Cloudy
Vidljivost: 10 km
Cloud details: Partly Cloudy 1219 m
2019/11/18 13:00 LYKV 181300Z VRB02KT 9999 SCT040 20/06 Q1016 NOSIG
LYNI - Niš, Srbija
Ažurirano: 18/11/2019 14:00
Few Clouds
Few Clouds
 Pravac vetra I
Vetar: I 17 km/h
Temperatura: 19°C
Tačka rose: 10°C
Vlažnost: 56%
Pritisak: 1017 hPa
Oblaci: Few Clouds
Vidljivost: 10 km
Cloud details: Few Clouds 1006 m
Few Clouds 1219 m
2019/11/18 13:00 LYNI 181300Z 08009KT 050V110 9999 FEW033TCU FEW040 19/10 Q1017 NOSIG
BKPR - Priština, Srbija
Ažurirano: 18/11/2019 14:30
Partly Cloudy
Partly Cloudy
 Pravac vetra Z
Vetar: Z 15 km/h
Temperatura: 16°C
Tačka rose: 6°C
Vlažnost: 52%
Pritisak: 1019 hPa
Oblaci: Partly Cloudy
Vidljivost: 10 km
Cloud details: Few Clouds 914 m
Partly Cloudy 1524 m
2019/11/18 13:30 BKPR 181330Z 26008KT 9999 FEW030 SCT050 16/06 Q1019 NOSIG RMK 17010095
 
LHPP - Pecs / Pogany, Hungary
Ažurirano: 18/11/2019 13:45
Few Clouds
Few Clouds
 Pravac vetra ZJZ
Vetar: ZJZ 17 km/h
Temperatura: 14°C
Tačka rose: 5°C
Vlažnost: 55%
Pritisak: 1014 hPa
Oblaci: Few Clouds
Vidljivost: 10 km
Cloud details: Few Clouds 1219 m
2019/11/18 12:45 LHPP 181245Z 25009KT 9999 FEW040 14/05 Q1014
LHUD - Szeged, Hungary
Ažurirano: 04/07/2019 01:45
NOT Current
Vedro
Vedro
 Pravac vetra S
Vetar: S 7 km/h
Temperatura: 18°C
Tačka rose: 13°C
Vlažnost: 73%
Pritisak: 1019 hPa
Pregled: Vedro
Vidljivost: greater than 10 km
2019/07/03 23:45 LHUD 032345Z 35004KT CAVOK 18/13 Q1019
LRTR - Timisoara, Romania
Ažurirano: 18/11/2019 14:00
Vedro
Vedro
 Pravac vetra JJZ
Vetar: JJZ 24 km/h
Temperatura: 17°C
Tačka rose: 9°C
Vlažnost: 59%
Pritisak: 1016 hPa
Pregled: Vedro
Vidljivost: greater than 10 km
2019/11/18 13:00 LRTR 181300Z 20013KT CAVOK 17/09 Q1016
 
LRCV - Craiova, Romania
Ažurirano: 18/11/2019 14:00
Slaba kiša, Mist, Few clouds
Slaba kiša, Mist, Few clouds
 Pravac vetra ISI
Vetar: ISI 17 km/h
Temperatura: 13°C
Tačka rose: 12°C
Vlažnost: 94%
Pritisak: 1018 hPa
Pregled: Slaba kiša, Mist
Oblaci: Few Clouds
Vidljivost: 3 km
Cloud details: Few Clouds 762 m
2019/11/18 13:00 LRCV 181300Z 07009KT 3000 -RA BR FEW025 13/12 Q1018 RERA R09/29//95
LBSF - Sofia, Bulgaria
Ažurirano: 18/11/2019 14:00
Partly Cloudy
Partly Cloudy
 Pravac vetra I
Vetar: I 20 km/h
Temperatura: 13°C
Tačka rose: 10°C
Vlažnost: 82%
Pritisak: 1019 hPa
Oblaci: Partly Cloudy
Vidljivost: 10 km
Cloud details: Few Clouds 792 m
Partly Cloudy 1524 m
2019/11/18 13:00 LBSF 181300Z 10011KT 9999 FEW026 SCT050 13/10 Q1019 NOSIG
LWSK - Skoplje, Makedonija
Ažurirano: 18/11/2019 14:30
Few Clouds
Few Clouds
 Pravac vetra J
Vetar: J 4 km/h
Temperatura: 20°C
Tačka rose: 9°C
Vlažnost: 49%
Pritisak: 1018 hPa
Oblaci: Few Clouds
Vidljivost: 10 km
Cloud details: Few Clouds 1006 m
2019/11/18 13:30 LWSK 181330Z 17002KT 9999 FEW033 20/09 Q1018 NOSIG
 
LYPG - Podgorica, Crna Gora
Ažurirano: 18/11/2019 14:00
Partly Cloudy
Partly Cloudy
 Pravac vetra JI
Vetar: JI 7 km/h
Temperatura: 18°C
Tačka rose: 9°C
Vlažnost: 56%
Pritisak: 1018 hPa
Oblaci: Partly Cloudy
Vidljivost: 10 km
Cloud details: Partly Cloudy 1006 m
2019/11/18 13:00 LYPG 181300Z 14004KT 100V190 9999 SCT033 18/09 Q1018 NOSIG
LQSA - Sarajevo, Bosna i Hercegovina
Ažurirano: 18/11/2019 14:00
Partly Cloudy
Partly Cloudy
 Pravac vetra varies
Vetar: varies 6 km/h
Temperatura: 17°C
Tačka rose: 3°C
Vlažnost: 39%
Pritisak: 1016 hPa
Oblaci: Partly Cloudy
Vidljivost: 10 km
Cloud details: Partly Cloudy 1524 m
2019/11/18 13:00 LQSA 181300Z VRB03KT 9999 SCT050 17/03 Q1016 NOSIG
LDOS - Osijek, Hrvatksa
Ažurirano: 18/11/2019 14:00
Vedro
Vedro
 Pravac vetra JZ
Vetar: JZ 17 km/h
Temperatura: 17°C
Tačka rose: 5°C
Vlažnost: 45%
Pritisak: 1015 hPa
Pregled: Vedro
Vidljivost: greater than 10 km
2019/11/18 13:00 LDOS 181300Z 22009KT CAVOK 17/05 Q1015